createdAt,value
2022-10-18T00:00:38.749Z,80.36
2022-10-18T00:03:05.511Z,81.53
2022-10-18T00:05:32.577Z,82.53
2022-10-18T00:07:59.546Z,84.04
2022-10-18T00:10:26.289Z,84.76
2022-10-18T00:12:53.054Z,85.15
2022-10-18T00:15:19.777Z,85.44
2022-10-18T00:17:46.420Z,86.17
2022-10-18T00:20:14.533Z,86.37
2022-10-18T00:22:41.825Z,87.21
2022-10-18T00:25:09.711Z,87.31
2022-10-18T00:27:36.459Z,87.24
2022-10-18T00:30:04.023Z,87.21
2022-10-18T00:32:30.973Z,85.97
2022-10-18T00:34:57.882Z,86.53
2022-10-18T00:37:24.680Z,86.95
2022-10-18T00:42:25.429Z,87.11
2022-10-18T00:44:51.999Z,87.17
2022-10-18T00:47:19.811Z,88.09
2022-10-18T00:49:54.020Z,88.01
2022-10-18T00:52:53.422Z,87.90
2022-10-18T00:55:20.512Z,88.50
2022-10-18T00:57:47.894Z,88.78
2022-10-18T01:00:18.240Z,87.91
2022-10-18T01:02:46.456Z,88.55
2022-10-18T01:05:16.024Z,87.95
2022-10-18T01:07:48.582Z,88.23
2022-10-18T01:10:33.823Z,88.45
2022-10-18T01:13:35.118Z,89.68
2022-10-18T01:16:13.685Z,90.63
2022-10-18T01:18:49.122Z,90.57
2022-10-18T01:21:31.214Z,90.00
2022-10-18T01:24:36.564Z,89.93
2022-10-18T01:27:32.357Z,89.42
2022-10-18T01:30:02.144Z,90.23
2022-10-18T01:32:44.819Z,90.69
2022-10-18T01:35:17.022Z,90.44
2022-10-18T01:37:47.462Z,90.17
2022-10-18T01:40:18.456Z,90.46
2022-10-18T01:42:47.475Z,89.56
2022-10-18T01:45:15.731Z,89.66
2022-10-18T01:47:45.551Z,89.73
2022-10-18T01:50:12.689Z,90.78
2022-10-18T01:52:52.522Z,91.49
2022-10-18T01:55:32.080Z,90.88
2022-10-18T01:58:09.667Z,91.40
2022-10-18T02:00:42.882Z,90.80
2022-10-18T02:03:15.061Z,90.34
2022-10-18T02:05:54.465Z,89.87
2022-10-18T02:08:27.063Z,90.75
2022-10-18T02:11:05.781Z,89.78
2022-10-18T02:13:43.867Z,89.86
2022-10-18T02:16:19.651Z,89.77
2022-10-18T02:18:57.793Z,89.93
2022-10-18T02:21:25.939Z,90.21
2022-10-18T02:23:53.331Z,90.17
2022-10-18T02:26:20.175Z,90.21
2022-10-18T02:28:46.994Z,89.78
2022-10-18T02:31:50.396Z,90.71
2022-10-18T02:34:23.183Z,91.42
2022-10-18T02:36:57.450Z,91.19
2022-10-18T02:39:36.194Z,90.88
2022-10-18T02:42:08.337Z,90.47
2022-10-18T02:44:36.314Z,90.56
2022-10-18T02:47:03.838Z,90.57
2022-10-18T02:49:30.544Z,90.30
2022-10-18T02:51:57.318Z,90.29
2022-10-18T02:54:24.153Z,90.66
2022-10-18T02:56:51.070Z,91.81
2022-10-18T02:59:18.031Z,91.65
2022-10-18T03:01:44.729Z,91.92
2022-10-18T03:04:11.625Z,91.91
2022-10-18T03:06:38.418Z,92.02
2022-10-18T03:09:06.182Z,91.83
2022-10-18T03:11:33.095Z,90.98
2022-10-18T03:13:59.820Z,91.99
2022-10-18T03:16:26.539Z,92.88
2022-10-18T03:18:53.137Z,92.78
2022-10-18T03:21:19.987Z,93.48
2022-10-18T03:23:46.617Z,93.14
2022-10-18T03:26:13.311Z,92.94
2022-10-18T03:28:40.086Z,92.35
2022-10-18T03:31:06.817Z,92.44
2022-10-18T03:33:33.684Z,92.41
2022-10-18T03:36:00.396Z,92.60
2022-10-18T03:38:27.214Z,93.11
2022-10-18T03:40:53.998Z,92.73
2022-10-18T03:43:20.765Z,93.19
2022-10-18T03:45:47.452Z,93.45
2022-10-18T03:48:14.306Z,93.87
2022-10-18T03:50:41.128Z,93.31
2022-10-18T03:53:07.860Z,93.06
2022-10-18T03:55:34.592Z,92.53
2022-10-18T03:58:01.239Z,92.80
2022-10-18T04:00:28.082Z,93.35
2022-10-18T04:02:55.968Z,93.17
2022-10-18T04:05:24.235Z,93.95
2022-10-18T04:07:50.912Z,93.27
2022-10-18T04:10:18.731Z,93.58
2022-10-18T04:12:45.589Z,93.70
2022-10-18T04:15:12.432Z,93.64
2022-10-18T04:17:39.185Z,93.59
2022-10-18T04:20:06.619Z,93.32
2022-10-18T04:22:33.351Z,93.42
2022-10-18T04:25:00.165Z,93.08
2022-10-18T04:27:26.879Z,93.80
2022-10-18T04:29:53.590Z,93.68
2022-10-18T04:32:20.180Z,94.04
2022-10-18T04:34:46.888Z,94.13
2022-10-18T04:37:13.583Z,93.60
2022-10-18T04:39:40.371Z,93.23
2022-10-18T04:42:06.986Z,93.54
2022-10-18T04:44:34.430Z,93.18
2022-10-18T04:47:01.141Z,93.64
2022-10-18T04:49:27.725Z,93.51
2022-10-18T04:51:56.002Z,93.08
2022-10-18T04:54:23.984Z,93.01
2022-10-18T04:56:53.770Z,93.02
2022-10-18T04:59:20.763Z,92.85
2022-10-18T05:01:47.568Z,92.89
2022-10-18T05:04:14.488Z,92.91
2022-10-18T05:06:41.451Z,92.60
2022-10-18T05:09:08.212Z,92.53
2022-10-18T05:11:34.869Z,91.34
2022-10-18T05:14:01.504Z,90.11
2022-10-18T05:16:28.498Z,90.40
2022-10-18T05:18:55.147Z,90.64
2022-10-18T05:21:21.978Z,90.98
2022-10-18T05:23:48.603Z,91.06
2022-10-18T05:26:15.242Z,91.16
2022-10-18T05:28:42.030Z,90.81
2022-10-18T05:31:11.807Z,90.87
2022-10-18T05:33:38.699Z,90.72
2022-10-18T05:36:05.886Z,91.71
2022-10-18T05:38:32.843Z,92.02
2022-10-18T05:41:00.003Z,92.43
2022-10-18T05:43:30.107Z,92.35
2022-10-18T05:45:56.944Z,90.85
2022-10-18T05:48:23.884Z,90.65
2022-10-18T05:50:50.719Z,90.07
2022-10-18T05:53:36.695Z,89.52
2022-10-18T05:56:04.648Z,89.33
2022-10-18T05:58:31.534Z,89.49
2022-10-18T06:01:00.190Z,88.82
2022-10-18T06:03:27.742Z,88.49
2022-10-18T06:06:01.883Z,88.88
2022-10-18T06:08:28.640Z,88.71
2022-10-18T06:10:55.461Z,88.64
2022-10-18T06:13:22.456Z,88.22
2022-10-18T06:15:49.293Z,88.50
2022-10-18T06:18:16.487Z,88.24
2022-10-18T06:20:43.139Z,89.00
2022-10-18T06:23:09.821Z,89.55
2022-10-18T06:25:36.405Z,90.13
2022-10-18T06:28:07.807Z,91.30
2022-10-18T06:30:37.148Z,91.93
2022-10-18T06:33:03.810Z,92.42
2022-10-18T06:35:30.547Z,92.92
2022-10-18T06:37:57.786Z,91.65
2022-10-18T06:40:24.733Z,91.12
2022-10-18T06:43:00.703Z,90.44
2022-10-18T06:45:37.368Z,90.16
2022-10-18T06:48:04.353Z,89.18
2022-10-18T06:50:31.088Z,88.13
2022-10-18T06:52:58.311Z,87.40
2022-10-18T06:55:25.054Z,86.99
2022-10-18T06:57:53.226Z,86.15
2022-10-18T07:00:20.092Z,86.33
2022-10-18T07:02:46.804Z,86.74
2022-10-18T07:05:13.527Z,86.47
2022-10-18T07:07:40.131Z,82.18
2022-10-18T07:10:09.263Z,81.27
2022-10-18T07:12:37.899Z,81.27
2022-10-18T07:15:09.122Z,82.76
2022-10-18T07:17:36.258Z,82.65
2022-10-18T07:20:04.372Z,79.86
2022-10-18T07:22:31.086Z,77.60
2022-10-18T07:24:57.735Z,77.13
2022-10-18T07:27:24.415Z,76.67
2022-10-18T07:29:51.145Z,75.97
2022-10-18T07:32:17.764Z,74.22
2022-10-18T07:34:44.362Z,72.88
2022-10-18T07:37:11.043Z,72.27
2022-10-18T07:39:37.659Z,71.94
2022-10-18T07:42:04.291Z,72.28
2022-10-18T07:44:31.048Z,71.06
2022-10-18T07:46:57.695Z,69.67
2022-10-18T07:49:24.447Z,69.81
2022-10-18T07:51:51.233Z,69.90
2022-10-18T07:54:18.124Z,69.24
2022-10-18T07:56:44.796Z,69.16
2022-10-18T07:59:11.788Z,68.70
2022-10-18T08:01:38.462Z,68.61
2022-10-18T08:04:07.949Z,68.34
2022-10-18T08:06:36.794Z,68.52
2022-10-18T08:09:04.123Z,69.10
2022-10-18T08:11:31.187Z,67.81
2022-10-18T08:13:57.864Z,67.56
2022-10-18T08:16:28.045Z,66.38
2022-10-18T08:18:58.134Z,66.27
2022-10-18T08:21:25.063Z,66.05
2022-10-18T08:23:51.830Z,66.74
2022-10-18T08:26:21.252Z,68.81
2022-10-18T08:28:58.457Z,69.39
2022-10-18T08:31:31.283Z,71.49
2022-10-18T08:33:57.976Z,72.24
2022-10-18T08:36:24.880Z,74.43
2022-10-18T08:38:52.076Z,73.07
2022-10-18T08:42:02.354Z,71.44
2022-10-18T08:44:32.396Z,73.54
2022-10-18T08:47:12.063Z,73.85
2022-10-18T08:49:48.180Z,72.69
2022-10-18T08:52:26.867Z,72.70
2022-10-18T08:55:02.993Z,73.96
2022-10-18T08:57:31.399Z,73.33
2022-10-18T08:59:58.320Z,73.87
2022-10-18T09:02:34.267Z,73.99
2022-10-18T09:05:20.383Z,73.01
2022-10-18T09:08:16.624Z,72.62
2022-10-18T09:13:52.066Z,72.19
2022-10-18T09:16:45.528Z,72.49
2022-10-18T09:19:29.258Z,71.82
2022-10-18T09:22:04.009Z,71.31
2022-10-18T09:24:38.785Z,70.93
2022-10-18T09:27:14.281Z,69.68
2022-10-18T09:30:16.233Z,69.38
2022-10-18T09:32:59.380Z,70.30
2022-10-18T09:35:33.985Z,70.14
2022-10-18T09:38:09.385Z,71.49
2022-10-18T09:40:47.132Z,72.25
2022-10-18T09:43:23.042Z,71.42
2022-10-18T09:45:52.407Z,71.48
2022-10-18T09:48:34.742Z,69.71
2022-10-18T09:51:06.162Z,70.42
2022-10-18T09:53:48.905Z,70.60
2022-10-18T09:56:21.586Z,70.39
2022-10-18T09:58:51.398Z,69.13
2022-10-18T10:01:26.910Z,70.26
2022-10-18T10:03:53.664Z,70.81
2022-10-18T10:06:31.163Z,72.13
2022-10-18T10:09:14.795Z,71.21
2022-10-18T10:11:50.289Z,69.42
2022-10-18T10:14:17.894Z,70.10
2022-10-18T10:16:58.389Z,70.68
2022-10-18T10:19:34.583Z,70.09
2022-10-18T10:22:10.508Z,69.34
2022-10-18T10:24:49.854Z,68.84
2022-10-18T10:27:35.688Z,69.20
2022-10-18T10:30:07.066Z,67.83
2022-10-18T10:32:47.464Z,67.56
2022-10-18T10:35:53.217Z,68.25
2022-10-18T10:38:26.057Z,68.24
2022-10-18T10:40:53.951Z,67.36
2022-10-18T10:43:43.017Z,67.92
2022-10-18T10:46:20.607Z,68.18
2022-10-18T10:48:49.390Z,66.58
2022-10-18T10:51:28.360Z,68.05
2022-10-18T10:53:57.826Z,68.08
2022-10-18T10:56:27.938Z,67.96
2022-10-18T10:58:57.885Z,68.18
2022-10-18T11:01:28.488Z,67.13
2022-10-18T11:03:58.725Z,68.26
2022-10-18T11:06:47.757Z,66.81
2022-10-18T11:09:39.245Z,66.13
2022-10-18T11:12:30.480Z,68.11
2022-10-18T11:15:28.789Z,67.94
2022-10-18T11:18:14.685Z,67.93
2022-10-18T11:20:46.216Z,65.78
2022-10-18T11:23:15.341Z,65.94
2022-10-18T11:25:54.344Z,66.29
2022-10-18T11:28:36.072Z,66.76
2022-10-18T11:31:20.975Z,66.86
2022-10-18T11:34:11.782Z,66.53
2022-10-18T11:36:56.356Z,67.51
2022-10-18T11:39:48.026Z,65.06
2022-10-18T11:42:35.608Z,66.27
2022-10-18T11:45:10.550Z,67.14
2022-10-18T11:47:55.695Z,67.75
2022-10-18T11:50:28.817Z,68.31
2022-10-18T11:53:19.978Z,67.25
2022-10-18T11:56:07.958Z,67.79
2022-10-18T11:58:55.775Z,70.29
2022-10-18T12:01:35.816Z,69.69
2022-10-18T12:04:05.647Z,68.87
2022-10-18T12:06:38.091Z,67.79
2022-10-18T12:09:32.655Z,69.41
2022-10-18T12:12:06.613Z,67.86
2022-10-18T12:14:40.629Z,67.79
2022-10-18T12:17:41.102Z,68.18
2022-10-18T12:20:30.466Z,68.90
2022-10-18T12:23:13.613Z,69.03
2022-10-18T12:25:45.771Z,67.84
2022-10-18T12:28:33.810Z,66.89
2022-10-18T12:31:22.063Z,66.51
2022-10-18T12:33:55.659Z,65.67
2022-10-18T12:36:22.341Z,65.55
2022-10-18T12:39:00.772Z,67.70
2022-10-18T12:41:34.659Z,68.44
2022-10-18T12:44:22.198Z,67.41
2022-10-18T12:46:51.152Z,67.46
2022-10-18T12:49:25.016Z,67.74
2022-10-18T12:51:54.239Z,67.37
2022-10-18T12:54:30.496Z,66.50
2022-10-18T12:56:59.965Z,65.92
2022-10-18T12:59:26.915Z,66.19
2022-10-18T13:01:53.532Z,66.59
2022-10-18T13:04:29.614Z,64.92
2022-10-18T13:07:05.579Z,62.20
2022-10-18T13:09:36.504Z,63.42
2022-10-18T13:12:14.936Z,64.73
2022-10-18T13:15:07.066Z,64.66
2022-10-18T13:17:42.577Z,63.96
2022-10-18T13:20:26.136Z,63.27
2022-10-18T13:23:05.503Z,64.32
2022-10-18T13:25:47.222Z,64.48
2022-10-18T13:28:34.211Z,63.72
2022-10-18T13:31:21.718Z,61.24
2022-10-18T13:33:48.824Z,61.71
2022-10-18T13:36:22.736Z,62.72
2022-10-18T13:38:50.442Z,64.33
2022-10-18T13:41:21.061Z,64.73
2022-10-18T13:43:56.525Z,64.02
2022-10-18T13:46:44.472Z,65.04
2022-10-18T13:49:14.751Z,64.19
2022-10-18T13:52:03.070Z,63.83
2022-10-18T13:54:32.666Z,65.65
2022-10-18T13:57:17.291Z,65.50
2022-10-18T13:59:47.002Z,66.01
2022-10-18T14:02:49.784Z,64.96
2022-10-18T14:05:27.735Z,64.00
2022-10-18T14:08:10.318Z,64.37
2022-10-18T14:11:01.845Z,65.36
2022-10-18T14:13:56.021Z,65.76
2022-10-18T14:16:50.425Z,66.51
2022-10-18T14:19:30.142Z,66.35
2022-10-18T14:22:11.690Z,66.57
2022-10-18T14:24:43.598Z,66.08
2022-10-18T14:27:32.997Z,63.31
2022-10-18T14:30:10.606Z,66.05
2022-10-18T14:32:37.321Z,66.76
2022-10-18T14:37:53.124Z,67.13
2022-10-18T14:40:33.326Z,67.79
2022-10-18T14:43:06.709Z,67.15
2022-10-18T14:45:33.514Z,67.53
2022-10-18T14:48:18.183Z,67.27
2022-10-18T14:50:48.868Z,67.71
2022-10-18T14:53:21.122Z,68.17
2022-10-18T14:56:05.924Z,68.62
2022-10-18T14:58:34.958Z,69.74
2022-10-18T15:01:01.902Z,69.70
2022-10-18T15:03:34.296Z,69.48
2022-10-18T15:06:05.871Z,70.08
2022-10-18T15:08:43.070Z,70.18
2022-10-18T15:11:14.330Z,70.13
2022-10-18T15:13:55.428Z,70.41
2022-10-18T15:16:29.126Z,70.57
2022-10-18T15:19:28.219Z,70.40
2022-10-18T15:22:30.701Z,69.69
2022-10-18T15:25:11.730Z,69.85
2022-10-18T15:27:39.919Z,70.19
2022-10-18T15:30:17.758Z,71.35
2022-10-18T15:32:51.621Z,71.93
2022-10-18T15:35:29.164Z,73.31
2022-10-18T15:37:58.137Z,74.62
2022-10-18T15:40:24.697Z,74.74
2022-10-18T15:42:56.859Z,74.79
2022-10-18T15:45:23.590Z,75.86
2022-10-18T15:48:13.168Z,76.78
2022-10-18T15:50:50.439Z,77.26
2022-10-18T15:53:34.377Z,76.82
2022-10-18T15:56:05.611Z,77.04
2022-10-18T15:58:40.969Z,78.03
2022-10-18T16:01:15.919Z,78.65
2022-10-18T16:03:43.454Z,79.50
2022-10-18T16:06:14.569Z,79.72
2022-10-18T16:08:50.172Z,80.25
2022-10-18T16:11:23.259Z,81.12
2022-10-18T16:13:50.399Z,81.46
2022-10-18T16:16:22.871Z,81.18
2022-10-18T16:18:50.483Z,81.08
2022-10-18T16:21:21.007Z,81.38
2022-10-18T16:23:49.359Z,81.25
2022-10-18T16:26:17.537Z,81.56
2022-10-18T16:28:44.957Z,82.55
2022-10-18T16:31:22.894Z,82.52
2022-10-18T16:33:52.132Z,82.85
2022-10-18T16:36:24.282Z,83.52
2022-10-18T16:38:51.701Z,84.02
2022-10-18T16:41:18.878Z,83.86
2022-10-18T16:43:47.439Z,84.23
2022-10-18T16:46:28.644Z,84.51
2022-10-18T16:48:56.370Z,84.77
2022-10-18T16:51:23.920Z,84.54
2022-10-18T16:53:50.615Z,84.69
2022-10-18T16:56:20.407Z,84.11
2022-10-18T16:58:48.043Z,84.39
2022-10-18T17:01:17.188Z,85.05
2022-10-18T17:03:44.370Z,84.46
2022-10-18T17:06:21.233Z,84.85
2022-10-18T17:08:48.402Z,84.82
2022-10-18T17:11:16.631Z,85.05
2022-10-18T17:13:44.029Z,84.63
2022-10-18T17:16:32.096Z,84.49
2022-10-18T17:19:02.182Z,84.27
2022-10-18T17:21:29.919Z,84.70
2022-10-18T17:24:00.534Z,84.32
2022-10-18T17:26:29.731Z,84.57
2022-10-18T17:29:03.553Z,84.64
2022-10-18T17:31:31.620Z,85.51
2022-10-18T17:34:01.394Z,85.69
2022-10-18T17:36:29.216Z,85.79
2022-10-18T17:38:56.395Z,85.97
2022-10-18T17:41:23.399Z,86.08
2022-10-18T17:43:50.177Z,84.97
2022-10-18T17:46:18.093Z,85.82
2022-10-18T17:48:45.504Z,85.63
2022-10-18T17:51:15.062Z,85.71
2022-10-18T17:53:42.117Z,85.09
2022-10-18T17:56:08.806Z,84.91
2022-10-18T17:58:36.018Z,85.16
2022-10-18T18:01:32.297Z,85.43
2022-10-18T18:04:02.932Z,85.67
2022-10-18T18:06:39.154Z,85.61
2022-10-18T18:09:09.541Z,86.05
2022-10-18T18:11:37.969Z,85.50
2022-10-18T18:14:08.937Z,85.25
2022-10-18T18:16:41.543Z,85.28
2022-10-18T18:19:09.992Z,85.11
2022-10-18T18:21:37.319Z,84.47
2022-10-18T18:24:04.378Z,84.87
2022-10-18T18:26:32.642Z,84.78
2022-10-18T18:28:59.793Z,85.58
2022-10-18T18:31:29.414Z,86.14
2022-10-18T18:33:59.161Z,86.23
2022-10-18T18:36:32.526Z,85.29
2022-10-18T18:38:59.508Z,85.11
2022-10-18T18:41:27.528Z,85.25
2022-10-18T18:44:02.864Z,85.34
2022-10-18T18:46:33.305Z,85.41
2022-10-18T18:49:00.268Z,85.25
2022-10-18T18:51:26.890Z,85.36
2022-10-18T18:53:53.578Z,85.43
2022-10-18T18:56:26.156Z,85.28
2022-10-18T18:58:54.255Z,86.56
2022-10-18T19:01:29.622Z,86.62
2022-10-18T19:03:57.377Z,86.33
2022-10-18T19:06:30.315Z,86.18
2022-10-18T19:09:03.043Z,87.07
2022-10-18T19:11:33.899Z,87.81
2022-10-18T19:14:01.591Z,86.49
2022-10-18T19:16:28.178Z,86.63
2022-10-18T19:19:04.955Z,87.51
2022-10-18T19:21:42.090Z,86.85
2022-10-18T19:24:09.321Z,87.20
2022-10-18T19:26:42.757Z,87.49
2022-10-18T19:29:27.878Z,87.15
2022-10-18T19:31:56.632Z,87.54
2022-10-18T19:34:25.202Z,87.17
2022-10-18T19:36:52.365Z,87.51
2022-10-18T19:39:21.430Z,87.27
2022-10-18T19:41:50.713Z,87.22
2022-10-18T19:44:19.346Z,87.92
2022-10-18T19:46:46.623Z,88.07
2022-10-18T19:49:13.594Z,88.89
2022-10-18T19:51:40.377Z,89.30
2022-10-18T19:54:07.132Z,89.04
2022-10-18T19:56:33.934Z,89.04
2022-10-18T19:59:00.736Z,88.78
2022-10-18T20:01:28.898Z,89.05
2022-10-18T20:03:56.069Z,89.36
2022-10-18T20:06:23.254Z,88.83
2022-10-18T20:08:50.434Z,89.60
2022-10-18T20:11:20.388Z,90.36
2022-10-18T20:13:47.092Z,90.48
2022-10-18T20:16:15.280Z,90.77
2022-10-18T20:18:45.315Z,90.06
2022-10-18T20:21:12.970Z,89.71
2022-10-18T20:23:41.196Z,90.52
2022-10-18T20:26:09.512Z,89.59
2022-10-18T20:28:37.642Z,89.02
2022-10-18T20:31:13.222Z,89.51
2022-10-18T20:33:40.064Z,89.92
2022-10-18T20:36:15.116Z,90.68
2022-10-18T20:38:43.660Z,89.54
2022-10-18T20:41:13.464Z,89.96
2022-10-18T20:43:40.974Z,89.85
2022-10-18T20:46:10.090Z,91.07
2022-10-18T20:48:38.672Z,92.27
2022-10-18T20:51:07.337Z,92.91
2022-10-18T20:53:35.591Z,92.51
2022-10-18T20:56:08.460Z,93.47
2022-10-18T20:58:36.314Z,92.85
2022-10-18T21:01:15.222Z,91.62
2022-10-18T21:03:45.431Z,91.86
2022-10-18T21:06:13.197Z,91.77
2022-10-18T21:08:40.534Z,92.56
2022-10-18T21:11:07.965Z,93.47
2022-10-18T21:13:34.962Z,94.16
2022-10-18T21:16:03.201Z,93.00
2022-10-18T21:18:32.400Z,93.44
2022-10-18T21:21:15.870Z,93.89
2022-10-18T21:23:42.617Z,92.88
2022-10-18T21:26:14.535Z,93.79
2022-10-18T21:28:41.261Z,94.39
2022-10-18T21:31:09.711Z,94.22
2022-10-18T21:33:36.550Z,93.93
2022-10-18T21:36:03.831Z,94.72
2022-10-18T21:38:30.589Z,95.77
2022-10-18T21:40:57.279Z,96.24
2022-10-18T21:43:23.961Z,96.44
2022-10-18T21:46:00.224Z,96.00
2022-10-18T21:48:27.851Z,95.43
2022-10-18T21:50:54.905Z,95.87
2022-10-18T21:53:21.926Z,95.60
2022-10-18T21:55:49.095Z,95.90
2022-10-18T21:58:15.785Z,96.21
2022-10-18T22:00:42.518Z,96.75
2022-10-18T22:03:10.671Z,96.97
2022-10-18T22:05:37.559Z,97.60
2022-10-18T22:08:05.173Z,97.33
2022-10-18T22:10:32.440Z,98.09
2022-10-18T22:12:59.915Z,97.61
2022-10-18T22:15:26.573Z,98.14
2022-10-18T22:17:53.364Z,98.73
2022-10-18T22:20:20.048Z,99.29
2022-10-18T22:22:46.727Z,98.90
2022-10-18T22:25:13.403Z,99.74
2022-10-18T22:27:40.252Z,100.00
2022-10-18T22:30:07.318Z,100.00
2022-10-18T22:32:34.044Z,100.00
2022-10-18T22:35:00.750Z,100.00
2022-10-18T22:37:27.464Z,100.00
2022-10-18T22:39:54.206Z,100.00
2022-10-18T22:42:20.922Z,100.00
2022-10-18T22:44:47.546Z,100.00
2022-10-18T22:47:14.323Z,100.00
2022-10-18T22:49:41.007Z,100.00
2022-10-18T22:52:07.738Z,100.00
2022-10-18T22:54:34.420Z,100.00
2022-10-18T22:57:01.201Z,100.00
2022-10-18T22:59:27.807Z,100.00
2022-10-18T23:01:54.487Z,100.00
2022-10-18T23:04:21.112Z,100.00
2022-10-18T23:06:47.797Z,99.63
2022-10-18T23:09:14.450Z,98.99
2022-10-18T23:11:41.152Z,97.06
2022-10-18T23:14:07.929Z,97.53
2022-10-18T23:16:35.235Z,96.03
2022-10-18T23:19:01.932Z,95.96
2022-10-18T23:21:29.348Z,96.44
2022-10-18T23:23:57.159Z,98.58
2022-10-18T23:26:26.114Z,99.22
2022-10-18T23:28:54.036Z,100.00
2022-10-18T23:31:23.984Z,100.00
2022-10-18T23:33:53.165Z,100.00
2022-10-18T23:36:21.281Z,100.00
2022-10-18T23:38:48.064Z,100.00
2022-10-18T23:41:16.381Z,98.93
2022-10-18T23:43:43.864Z,98.51
2022-10-18T23:46:11.015Z,98.51
2022-10-18T23:48:38.165Z,99.73
2022-10-18T23:51:05.929Z,100.00
2022-10-18T23:53:33.658Z,100.00
2022-10-18T23:56:09.395Z,99.22
2022-10-18T23:58:37.498Z,99.00
